createdAt,value
2019-01-31T00:05:11.535Z,6.73
2019-01-31T00:10:50.764Z,5.77
2019-01-31T00:16:27.962Z,7.80
2019-01-31T00:21:53.499Z,5.60
2019-01-31T00:27:56.965Z,5.63
2019-01-31T00:33:47.428Z,5.17
2019-01-31T00:39:33.886Z,5.70
2019-01-31T00:45:19.758Z,4.50
2019-01-31T00:50:55.204Z,7.20
2019-01-31T00:56:26.075Z,5.57
2019-01-31T01:02:05.512Z,8.90
2019-01-31T01:07:45.414Z,3.53
2019-01-31T01:13:05.406Z,8.13
2019-01-31T01:18:57.049Z,4.63
2019-01-31T01:24:33.828Z,5.50
2019-01-31T01:30:31.356Z,5.83
2019-01-31T01:35:50.875Z,4.70
2019-01-31T01:41:41.924Z,6.97
2019-01-31T01:47:19.892Z,3.80
2019-01-31T01:53:03.483Z,6.80
2019-01-31T01:58:23.718Z,4.93
2019-01-31T02:04:20.382Z,6.43
2019-01-31T02:10:20.232Z,3.87
2019-01-31T02:15:52.143Z,4.23
2019-01-31T02:21:52.881Z,4.57
2019-01-31T02:27:55.895Z,4.13
2019-01-31T02:33:24.170Z,5.27
2019-01-31T02:38:53.674Z,7.27
2019-01-31T02:44:13.898Z,6.93
2019-01-31T02:50:03.941Z,8.23
2019-01-31T02:55:55.227Z,7.03
2019-01-31T03:01:35.235Z,5.60
2019-01-31T03:07:22.586Z,4.73
2019-01-31T03:13:02.447Z,5.17
2019-01-31T03:18:53.545Z,3.93
2019-01-31T03:24:22.996Z,6.90
2019-01-31T03:30:15.847Z,6.50
2019-01-31T03:35:59.791Z,5.93
2019-01-31T03:41:57.661Z,10.10
2019-01-31T03:47:46.551Z,5.40
2019-01-31T03:53:27.711Z,5.20
2019-01-31T03:58:53.916Z,5.70
2019-01-31T04:04:11.071Z,4.33
2019-01-31T04:09:17.221Z,7.07
2019-01-31T04:14:27.200Z,5.87
2019-01-31T04:19:35.208Z,6.83
2019-01-31T04:24:43.264Z,10.53
2019-01-31T04:29:50.194Z,4.40
2019-01-31T04:34:56.455Z,6.37
2019-01-31T04:40:04.497Z,6.63
2019-01-31T04:45:12.658Z,4.57
2019-01-31T04:50:20.011Z,5.73
2019-01-31T04:55:26.362Z,4.60
2019-01-31T05:00:34.553Z,5.20
2019-01-31T05:05:41.284Z,6.63
2019-01-31T05:10:48.223Z,3.80
2019-01-31T05:15:55.246Z,3.53
2019-01-31T05:21:03.872Z,3.70
2019-01-31T05:26:13.622Z,4.50
2019-01-31T05:31:21.442Z,4.60
2019-01-31T05:36:28.428Z,4.83
2019-01-31T05:41:35.929Z,4.33
2019-01-31T05:46:45.671Z,3.60
2019-01-31T05:51:55.432Z,3.47
2019-01-31T05:57:04.177Z,4.67
2019-01-31T06:02:11.878Z,6.43
2019-01-31T06:07:21.571Z,4.67
2019-01-31T06:12:28.081Z,2.33
2019-01-31T06:17:35.167Z,5.73
2019-01-31T06:22:42.886Z,2.40
2019-01-31T06:27:51.808Z,4.27
2019-01-31T06:32:57.853Z,2.60
2019-01-31T06:38:04.683Z,5.97
2019-01-31T06:43:14.521Z,4.87
2019-01-31T06:48:22.439Z,3.33
2019-01-31T06:53:29.037Z,3.60
2019-01-31T06:58:35.698Z,5.23
2019-01-31T07:03:43.319Z,3.23
2019-01-31T07:08:51.871Z,4.60
2019-01-31T07:14:00.390Z,4.50
2019-01-31T07:19:07.357Z,4.03
2019-01-31T07:24:17.037Z,3.83
2019-01-31T07:29:24.763Z,7.77
2019-01-31T07:34:32.332Z,3.77
2019-01-31T07:39:41.837Z,6.30
2019-01-31T07:44:50.186Z,6.70
2019-01-31T07:49:57.294Z,4.83
2019-01-31T07:55:04.794Z,3.90
2019-01-31T08:00:14.340Z,3.07
2019-01-31T08:05:22.891Z,3.83
2019-01-31T08:10:48.568Z,4.03
2019-01-31T08:15:57.717Z,4.27
2019-01-31T08:21:06.849Z,5.97
2019-01-31T08:26:14.571Z,5.07
2019-01-31T08:31:24.695Z,5.13
2019-01-31T08:36:32.414Z,2.87
2019-01-31T08:41:39.715Z,5.87
2019-01-31T08:46:47.143Z,3.50
2019-01-31T08:51:54.141Z,3.67
2019-01-31T08:57:02.728Z,4.90
2019-01-31T09:02:09.006Z,6.40
2019-01-31T09:07:15.523Z,4.83
2019-01-31T09:12:24.406Z,3.00
2019-01-31T09:17:32.410Z,6.73
2019-01-31T09:22:56.456Z,4.40
2019-01-31T09:28:11.295Z,5.07
2019-01-31T09:34:03.442Z,3.93
2019-01-31T09:40:10.973Z,4.07
2019-01-31T09:46:12.799Z,3.40
2019-01-31T09:51:46.483Z,4.67
2019-01-31T09:57:37.774Z,1.50
2019-01-31T10:03:41.431Z,7.00
2019-01-31T10:09:25.951Z,2.07
2019-01-31T10:14:49.895Z,2.23
2019-01-31T10:20:33.180Z,2.30
2019-01-31T10:26:13.864Z,2.53
2019-01-31T10:31:32.727Z,4.43
2019-01-31T10:36:52.815Z,3.17
2019-01-31T10:42:50.526Z,3.40
2019-01-31T10:48:35.254Z,2.67
2019-01-31T10:54:32.171Z,1.93
2019-01-31T11:00:23.974Z,5.10
2019-01-31T11:06:08.186Z,2.60
2019-01-31T11:11:32.673Z,5.50
2019-01-31T11:17:05.797Z,2.87
2019-01-31T11:22:44.718Z,2.10
2019-01-31T11:28:32.401Z,1.53
2019-01-31T11:33:51.389Z,2.57
2019-01-31T11:39:37.845Z,4.13
2019-01-31T11:45:24.981Z,3.27
2019-01-31T11:51:09.533Z,3.43
2019-01-31T11:56:41.582Z,3.23
2019-01-31T12:01:48.646Z,5.33
2019-01-31T12:06:57.128Z,5.03
2019-01-31T12:12:03.926Z,2.60
2019-01-31T12:17:11.842Z,7.03
2019-01-31T12:22:19.293Z,5.33
2019-01-31T12:27:26.952Z,2.60
2019-01-31T12:32:33.526Z,3.50
2019-01-31T12:37:41.670Z,2.47
2019-01-31T12:42:48.392Z,2.70
2019-01-31T12:47:56.078Z,5.23
2019-01-31T12:53:04.019Z,2.63
2019-01-31T12:58:11.736Z,2.50
2019-01-31T13:03:18.715Z,2.60
2019-01-31T13:08:25.754Z,3.33
2019-01-31T13:13:45.571Z,1.60
2019-01-31T13:18:44.876Z,1.67
2019-01-31T13:23:54.558Z,3.93
2019-01-31T13:29:02.367Z,3.63
2019-01-31T13:34:10.923Z,7.43
2019-01-31T13:39:21.642Z,4.23
2019-01-31T13:44:27.912Z,6.27
2019-01-31T13:49:34.291Z,3.20
2019-01-31T13:54:42.113Z,3.53
2019-01-31T13:59:48.385Z,3.10
2019-01-31T14:04:55.087Z,2.90
2019-01-31T14:10:01.402Z,5.57
2019-01-31T14:15:10.006Z,2.87
2019-01-31T14:20:20.689Z,6.10
2019-01-31T14:25:28.394Z,3.97
2019-01-31T14:30:39.300Z,2.53
2019-01-31T14:35:45.475Z,2.70
2019-01-31T14:40:53.499Z,6.07
2019-01-31T14:46:00.809Z,2.43
2019-01-31T14:51:11.387Z,3.13
2019-01-31T14:56:20.017Z,1.23
2019-01-31T15:01:27.291Z,1.67
2019-01-31T15:06:36.271Z,2.17
2019-01-31T15:11:44.024Z,4.30
2019-01-31T15:16:52.399Z,2.33
2019-01-31T15:22:00.288Z,4.53
2019-01-31T15:27:06.619Z,4.77
2019-01-31T15:32:15.103Z,2.60
2019-01-31T15:37:23.012Z,4.97
2019-01-31T15:42:30.960Z,2.40
2019-01-31T15:47:38.357Z,4.83
2019-01-31T15:52:45.547Z,5.13
2019-01-31T15:58:05.769Z,4.67
2019-01-31T16:03:15.818Z,4.03
2019-01-31T16:08:24.045Z,1.87
2019-01-31T16:13:31.669Z,4.53
2019-01-31T16:18:38.962Z,2.80
2019-01-31T16:23:45.390Z,2.90
2019-01-31T16:28:51.519Z,3.23
2019-01-31T16:33:58.370Z,2.50
2019-01-31T16:39:09.139Z,2.53
2019-01-31T16:44:17.270Z,3.80
2019-01-31T16:49:24.026Z,3.17
2019-01-31T16:54:31.806Z,2.47
2019-01-31T16:59:38.775Z,2.07
2019-01-31T17:04:44.844Z,1.70
2019-01-31T17:09:54.626Z,2.50
2019-01-31T17:15:11.410Z,2.23
2019-01-31T17:20:18.808Z,3.03
2019-01-31T17:25:25.556Z,3.57
2019-01-31T17:30:33.339Z,3.93
2019-01-31T17:35:42.640Z,2.83
2019-01-31T17:40:52.956Z,3.13
2019-01-31T17:46:01.467Z,3.30
2019-01-31T17:51:08.918Z,2.77
2019-01-31T17:56:14.986Z,1.47
2019-01-31T18:01:21.040Z,2.23
2019-01-31T18:06:27.021Z,1.93
2019-01-31T18:11:33.597Z,4.40
2019-01-31T18:16:41.474Z,2.40
2019-01-31T18:21:47.769Z,3.43
2019-01-31T18:26:55.474Z,2.87
2019-01-31T18:32:03.175Z,2.70
2019-01-31T18:37:09.782Z,3.77
2019-01-31T18:42:15.955Z,5.10
2019-01-31T18:47:24.421Z,5.77
2019-01-31T18:52:39.546Z,2.97
2019-01-31T18:57:47.574Z,2.60
2019-01-31T19:02:56.597Z,2.90
2019-01-31T19:08:08.860Z,3.20
2019-01-31T19:13:14.832Z,2.23
2019-01-31T19:18:22.406Z,2.97
2019-01-31T19:23:29.975Z,3.40
2019-01-31T19:28:38.574Z,4.00
2019-01-31T19:33:44.454Z,2.13
2019-01-31T19:38:52.450Z,2.53
2019-01-31T19:44:00.800Z,3.03
2019-01-31T19:49:08.232Z,1.87
2019-01-31T19:54:15.223Z,2.83
2019-01-31T19:59:23.254Z,4.97
2019-01-31T20:04:29.217Z,1.97
2019-01-31T20:09:36.588Z,4.37
2019-01-31T20:14:43.979Z,4.77
2019-01-31T20:19:51.857Z,5.60
2019-01-31T20:24:58.079Z,5.50
2019-01-31T20:30:05.567Z,4.60
2019-01-31T20:35:13.738Z,7.23
2019-01-31T20:40:24.152Z,5.70
2019-01-31T20:45:35.168Z,5.23
2019-01-31T20:50:43.362Z,4.63
2019-01-31T20:55:52.576Z,5.10
2019-01-31T21:01:06.095Z,6.17
2019-01-31T21:06:12.958Z,4.43
2019-01-31T21:11:23.251Z,7.00
2019-01-31T21:16:31.681Z,6.23
2019-01-31T21:21:40.945Z,6.47
2019-01-31T21:26:50.295Z,3.47
2019-01-31T21:31:57.155Z,5.70
2019-01-31T21:37:05.248Z,5.60
2019-01-31T21:42:13.664Z,5.87
2019-01-31T21:47:23.445Z,9.93
2019-01-31T21:52:38.672Z,12.40
2019-01-31T21:57:49.646Z,12.23
2019-01-31T22:02:56.328Z,11.43
2019-01-31T22:08:06.976Z,10.57
2019-01-31T22:13:14.207Z,11.73
2019-01-31T22:18:21.675Z,11.73
2019-01-31T22:23:32.730Z,11.63
2019-01-31T22:28:39.834Z,8.23
2019-01-31T22:33:47.201Z,23.07
2019-01-31T22:38:55.780Z,25.47
2019-01-31T22:44:03.332Z,24.87
2019-01-31T22:49:09.746Z,23.27
2019-01-31T22:54:16.903Z,31.37
2019-01-31T22:59:23.992Z,26.43
2019-01-31T23:04:31.962Z,27.60
2019-01-31T23:09:38.795Z,21.07
2019-01-31T23:14:44.963Z,21.37
2019-01-31T23:19:52.744Z,20.00
2019-01-31T23:24:59.652Z,36.93
2019-01-31T23:30:09.850Z,21.93
2019-01-31T23:35:19.687Z,21.83
2019-01-31T23:40:29.460Z,22.37
2019-01-31T23:45:35.683Z,15.33
2019-01-31T23:50:45.609Z,22.27
2019-01-31T23:55:53.353Z,17.23
